createdAt,value
2023-01-07T00:02:12.569Z,72.65
2023-01-07T00:04:40.490Z,72.78
2023-01-07T00:07:09.951Z,72.83
2023-01-07T00:09:39.758Z,73.01
2023-01-07T00:12:07.829Z,72.83
2023-01-07T00:14:35.715Z,73.11
2023-01-07T00:17:03.703Z,72.93
2023-01-07T00:19:31.810Z,72.92
2023-01-07T00:21:59.837Z,72.79
2023-01-07T00:24:27.939Z,72.94
2023-01-07T00:26:55.900Z,72.97
2023-01-07T00:29:23.841Z,72.72
2023-01-07T00:31:53.084Z,72.63
2023-01-07T00:34:22.883Z,72.71
2023-01-07T00:36:50.749Z,72.85
2023-01-07T00:39:20.692Z,72.57
2023-01-07T00:42:04.181Z,72.72
2023-01-07T00:44:32.272Z,72.59
2023-01-07T00:47:00.874Z,72.74
2023-01-07T00:49:29.148Z,72.40
2023-01-07T00:51:57.202Z,72.37
2023-01-07T00:54:25.664Z,72.24
2023-01-07T00:56:53.851Z,72.27
2023-01-07T00:59:21.929Z,72.69
2023-01-07T01:01:50.399Z,72.78
2023-01-07T01:04:18.780Z,72.65
2023-01-07T01:06:46.690Z,72.63
2023-01-07T01:09:14.737Z,72.77
2023-01-07T01:11:45.197Z,72.79
2023-01-07T01:14:13.233Z,72.72
2023-01-07T01:16:41.519Z,72.91
2023-01-07T01:19:09.481Z,72.94
2023-01-07T01:21:39.810Z,72.65
2023-01-07T01:24:08.528Z,72.53
2023-01-07T01:26:36.485Z,72.80
2023-01-07T01:29:05.886Z,72.62
2023-01-07T01:31:34.040Z,72.56
2023-01-07T01:34:02.225Z,72.58
2023-01-07T01:36:30.272Z,72.63
2023-01-07T01:38:59.593Z,72.76
2023-01-07T01:41:29.326Z,72.87
2023-01-07T01:43:57.940Z,72.85
2023-01-07T01:46:34.937Z,72.60
2023-01-07T01:49:08.123Z,72.88
2023-01-07T01:51:42.918Z,72.84
2023-01-07T01:54:14.757Z,72.49
2023-01-07T01:56:48.151Z,72.60
2023-01-07T01:59:20.934Z,72.53
2023-01-07T02:01:49.346Z,72.71
2023-01-07T02:04:21.298Z,72.51
2023-01-07T02:06:54.553Z,72.45
2023-01-07T02:09:23.730Z,72.63
2023-01-07T02:11:58.807Z,72.81
2023-01-07T02:14:40.513Z,72.73
2023-01-07T02:17:17.589Z,72.88
2023-01-07T02:20:11.795Z,72.73
2023-01-07T02:23:02.075Z,72.62
2023-01-07T02:25:49.196Z,72.74
2023-01-07T02:28:35.882Z,72.95
2023-01-07T02:31:26.663Z,72.60
2023-01-07T02:33:58.284Z,72.38
2023-01-07T02:36:45.689Z,72.73
2023-01-07T02:39:30.755Z,72.78
2023-01-07T02:42:02.196Z,72.61
2023-01-07T02:44:38.151Z,72.64
2023-01-07T02:47:13.588Z,72.71
2023-01-07T02:49:42.787Z,72.85
2023-01-07T02:52:21.170Z,72.74
2023-01-07T02:54:53.976Z,72.88
2023-01-07T02:57:37.137Z,72.70
2023-01-07T03:00:19.436Z,72.75
2023-01-07T03:03:02.702Z,72.87
2023-01-07T03:05:44.230Z,72.88
2023-01-07T03:08:29.487Z,73.12
2023-01-07T03:11:00.280Z,73.22
2023-01-07T03:13:33.598Z,73.11
2023-01-07T03:16:06.246Z,73.00
2023-01-07T03:18:39.070Z,73.01
2023-01-07T03:21:12.178Z,73.25
2023-01-07T03:23:44.352Z,73.25
2023-01-07T03:26:15.415Z,73.08
2023-01-07T03:28:44.040Z,73.12
2023-01-07T03:31:15.232Z,73.29
2023-01-07T03:33:50.374Z,73.02
2023-01-07T03:36:23.060Z,73.19
2023-01-07T03:38:54.453Z,73.01
2023-01-07T03:41:46.304Z,73.31
2023-01-07T03:44:15.220Z,73.45
2023-01-07T03:46:43.890Z,73.19
2023-01-07T03:49:12.443Z,73.22
2023-01-07T03:51:40.629Z,73.29
2023-01-07T03:54:09.097Z,72.95
2023-01-07T03:56:37.254Z,72.99
2023-01-07T03:59:05.162Z,73.24
2023-01-07T04:01:33.270Z,73.33
2023-01-07T04:04:03.331Z,73.06
2023-01-07T04:06:32.369Z,73.01
2023-01-07T04:09:00.718Z,73.46
2023-01-07T04:11:29.203Z,73.31
2023-01-07T04:14:00.131Z,73.59
2023-01-07T04:16:28.162Z,73.37
2023-01-07T04:18:56.808Z,73.26
2023-01-07T04:21:24.992Z,73.36
2023-01-07T04:23:53.618Z,73.40
2023-01-07T04:26:22.449Z,73.61
2023-01-07T04:28:50.834Z,73.36
2023-01-07T04:31:19.122Z,73.09
2023-01-07T04:33:47.048Z,73.34
2023-01-07T04:36:15.459Z,73.43
2023-01-07T04:38:49.577Z,73.37
2023-01-07T04:41:17.557Z,74.02
2023-01-07T04:43:45.519Z,73.69
2023-01-07T04:46:13.773Z,74.20
2023-01-07T04:48:41.868Z,74.19
2023-01-07T04:51:09.999Z,74.13
2023-01-07T04:53:38.815Z,73.93
2023-01-07T04:56:08.395Z,74.02
2023-01-07T04:58:36.469Z,74.11
2023-01-07T05:01:06.369Z,73.79
2023-01-07T05:03:35.014Z,73.64
2023-01-07T05:06:04.370Z,73.98
2023-01-07T05:08:33.334Z,74.43
2023-01-07T05:11:03.354Z,74.32
2023-01-07T05:13:31.590Z,74.43
2023-01-07T05:16:01.224Z,74.10
2023-01-07T05:18:30.102Z,74.16
2023-01-07T05:20:58.983Z,74.27
2023-01-07T05:23:27.063Z,74.25
2023-01-07T05:25:55.083Z,74.24
2023-01-07T05:28:23.418Z,74.14
2023-01-07T05:30:51.487Z,73.95
2023-01-07T05:33:19.477Z,74.19
2023-01-07T05:35:48.742Z,74.08
2023-01-07T05:38:17.253Z,74.22
2023-01-07T05:40:49.736Z,74.15
2023-01-07T05:43:20.800Z,74.08
2023-01-07T05:45:49.029Z,74.15
2023-01-07T05:48:17.126Z,73.75
2023-01-07T05:50:45.191Z,74.03
2023-01-07T05:53:13.381Z,73.59
2023-01-07T05:55:41.764Z,74.14
2023-01-07T05:58:09.890Z,73.87
2023-01-07T06:00:38.107Z,74.28
2023-01-07T06:03:06.208Z,74.19
2023-01-07T06:05:34.351Z,73.93
2023-01-07T06:08:02.324Z,74.38
2023-01-07T06:10:30.291Z,74.51
2023-01-07T06:12:58.257Z,74.38
2023-01-07T06:15:26.286Z,74.18
2023-01-07T06:17:54.194Z,74.39
2023-01-07T06:20:22.887Z,74.38
2023-01-07T06:22:50.848Z,74.41
2023-01-07T06:25:18.793Z,74.18
2023-01-07T06:27:46.724Z,74.35
2023-01-07T06:30:15.206Z,74.28
2023-01-07T06:32:44.181Z,74.34
2023-01-07T06:35:12.553Z,74.14
2023-01-07T06:37:40.532Z,74.63
2023-01-07T06:40:11.336Z,74.51
2023-01-07T06:42:39.244Z,74.49
2023-01-07T06:45:08.885Z,74.54
2023-01-07T06:47:36.850Z,74.45
2023-01-07T06:50:06.186Z,74.62
2023-01-07T06:52:34.517Z,74.56
2023-01-07T06:55:02.516Z,74.59
2023-01-07T06:57:30.861Z,74.61
2023-01-07T06:59:58.768Z,74.50
2023-01-07T07:02:28.436Z,74.60
2023-01-07T07:04:56.695Z,74.83
2023-01-07T07:07:25.289Z,74.71
2023-01-07T07:09:53.396Z,74.94
2023-01-07T07:12:21.304Z,74.71
2023-01-07T07:14:49.254Z,74.91
2023-01-07T07:17:17.276Z,74.83
2023-01-07T07:19:45.202Z,74.72
2023-01-07T07:22:13.130Z,74.97
2023-01-07T07:24:41.027Z,75.03
2023-01-07T07:27:09.149Z,74.94
2023-01-07T07:29:37.068Z,74.98
2023-01-07T07:32:06.363Z,74.95
2023-01-07T07:34:35.894Z,74.91
2023-01-07T07:37:04.218Z,74.90
2023-01-07T07:39:33.111Z,74.89
2023-01-07T07:42:03.841Z,74.84
2023-01-07T07:44:31.816Z,74.90
2023-01-07T07:46:59.778Z,75.03
2023-01-07T07:49:27.748Z,75.05
2023-01-07T07:51:55.851Z,75.12
2023-01-07T07:54:24.394Z,75.08
2023-01-07T07:56:52.317Z,74.93
2023-01-07T07:59:20.344Z,75.22
2023-01-07T08:01:48.967Z,75.07
2023-01-07T08:04:17.507Z,75.40
2023-01-07T08:06:48.258Z,75.40
2023-01-07T08:09:16.207Z,75.20
2023-01-07T08:11:44.286Z,75.42
2023-01-07T08:14:12.371Z,75.39
2023-01-07T08:16:40.554Z,75.38
2023-01-07T08:19:08.618Z,75.30
2023-01-07T08:21:36.665Z,75.41
2023-01-07T08:24:06.298Z,75.32
2023-01-07T08:26:34.924Z,75.38
2023-01-07T08:29:02.970Z,75.52
2023-01-07T08:31:31.252Z,75.45
2023-01-07T08:33:59.208Z,75.42
2023-01-07T08:36:27.400Z,75.38
2023-01-07T08:38:55.775Z,75.40
2023-01-07T08:41:24.913Z,75.49
2023-01-07T08:43:53.953Z,75.54
2023-01-07T08:46:22.216Z,75.67
2023-01-07T08:48:50.418Z,75.73
2023-01-07T08:51:18.482Z,75.51
2023-01-07T08:53:47.116Z,75.47
2023-01-07T08:56:15.551Z,75.38
2023-01-07T08:58:43.634Z,75.53
2023-01-07T09:01:11.814Z,75.42
2023-01-07T09:03:39.878Z,75.36
2023-01-07T09:06:08.917Z,75.48
2023-01-07T09:08:36.941Z,75.49
2023-01-07T09:11:05.194Z,75.33
2023-01-07T09:13:33.394Z,75.37
2023-01-07T09:16:01.293Z,75.33
2023-01-07T09:18:29.276Z,75.12
2023-01-07T09:20:57.235Z,75.22
2023-01-07T09:23:25.222Z,75.32
2023-01-07T09:25:53.204Z,75.18
2023-01-07T09:28:21.217Z,75.20
2023-01-07T09:30:49.185Z,75.52
2023-01-07T09:33:17.113Z,75.56
2023-01-07T09:35:45.043Z,75.19
2023-01-07T09:38:13.008Z,74.76
2023-01-07T09:40:43.525Z,74.24
2023-01-07T09:43:16.920Z,73.93
2023-01-07T09:45:49.582Z,73.60
2023-01-07T09:48:24.564Z,73.29
2023-01-07T09:51:00.197Z,72.91
2023-01-07T09:53:32.879Z,72.56
2023-01-07T09:56:11.341Z,72.62
2023-01-07T09:58:43.876Z,72.28
2023-01-07T10:01:24.229Z,72.20
2023-01-07T10:04:02.309Z,72.19
2023-01-07T10:06:43.803Z,72.27
2023-01-07T10:09:26.276Z,72.29
2023-01-07T10:12:03.341Z,72.39
2023-01-07T10:14:53.022Z,72.65
2023-01-07T10:17:37.056Z,72.82
2023-01-07T10:20:15.638Z,72.77
2023-01-07T10:22:51.933Z,72.82
2023-01-07T10:25:24.643Z,72.90
2023-01-07T10:27:55.945Z,73.06
2023-01-07T10:30:28.850Z,73.15
2023-01-07T10:33:10.758Z,73.14
2023-01-07T10:35:40.638Z,72.96
2023-01-07T10:38:17.911Z,72.77
2023-01-07T10:40:51.361Z,72.49
2023-01-07T10:43:37.315Z,72.59
2023-01-07T10:46:33.141Z,72.54
2023-01-07T10:49:24.148Z,73.14
2023-01-07T10:52:04.313Z,73.33
2023-01-07T10:54:48.373Z,72.95
2023-01-07T10:57:19.951Z,72.57
2023-01-07T10:59:50.859Z,72.39
2023-01-07T11:02:21.980Z,72.34
2023-01-07T11:04:50.083Z,72.09
2023-01-07T11:07:28.625Z,72.19
2023-01-07T11:10:03.633Z,71.89
2023-01-07T11:12:37.832Z,71.61
2023-01-07T11:15:14.875Z,71.10
2023-01-07T11:17:47.594Z,71.49
2023-01-07T11:20:46.224Z,71.32
2023-01-07T11:23:29.518Z,71.07
2023-01-07T11:26:09.590Z,71.37
2023-01-07T11:28:41.013Z,71.02
2023-01-07T11:31:09.527Z,70.71
2023-01-07T11:34:02.622Z,70.47
2023-01-07T11:36:41.942Z,70.23
2023-01-07T11:39:18.382Z,70.49
2023-01-07T11:41:58.260Z,70.88
2023-01-07T11:44:26.985Z,71.18
2023-01-07T11:46:56.534Z,71.02
2023-01-07T11:49:28.297Z,70.54
2023-01-07T11:51:56.887Z,70.53
2023-01-07T11:54:26.696Z,70.43
2023-01-07T11:57:11.761Z,70.53
2023-01-07T11:59:39.772Z,70.12
2023-01-07T12:02:25.066Z,69.90
2023-01-07T12:05:13.180Z,69.89
2023-01-07T12:07:45.997Z,69.80
2023-01-07T12:10:35.458Z,69.67
2023-01-07T12:13:05.878Z,69.86
2023-01-07T12:15:38.857Z,70.19
2023-01-07T12:18:24.970Z,70.41
2023-01-07T12:21:19.064Z,70.45
2023-01-07T12:24:01.393Z,70.38
2023-01-07T12:26:37.468Z,70.04
2023-01-07T12:29:19.266Z,70.00
2023-01-07T12:32:13.179Z,69.99
2023-01-07T12:34:51.220Z,69.99
2023-01-07T12:37:31.469Z,70.09
2023-01-07T12:40:15.441Z,70.12
2023-01-07T12:42:50.051Z,70.16
2023-01-07T12:45:22.466Z,70.32
2023-01-07T12:47:54.899Z,70.27
2023-01-07T12:50:28.468Z,70.43
2023-01-07T12:53:02.666Z,70.53
2023-01-07T12:55:34.687Z,70.41
2023-01-07T12:58:14.334Z,70.39
2023-01-07T13:00:48.969Z,70.41
2023-01-07T13:03:28.695Z,70.70
2023-01-07T13:06:05.364Z,70.70
2023-01-07T13:08:42.410Z,70.81
2023-01-07T13:11:19.505Z,70.69
2023-01-07T13:13:52.111Z,70.59
2023-01-07T13:16:20.125Z,70.34
2023-01-07T13:18:51.447Z,70.31
2023-01-07T13:21:21.554Z,70.25
2023-01-07T13:24:10.230Z,70.01
2023-01-07T13:26:48.495Z,70.02
2023-01-07T13:29:45.331Z,70.11
2023-01-07T13:32:35.429Z,70.43
2023-01-07T13:35:21.324Z,70.49
2023-01-07T13:38:01.006Z,70.43
2023-01-07T13:40:47.041Z,70.24
2023-01-07T13:43:35.959Z,70.44
2023-01-07T13:46:12.417Z,70.18
2023-01-07T13:48:41.028Z,70.09
2023-01-07T13:51:10.296Z,70.20
2023-01-07T13:53:48.194Z,70.38
2023-01-07T13:56:39.851Z,70.49
2023-01-07T13:59:52.070Z,70.67
2023-01-07T14:02:23.639Z,70.84
2023-01-07T14:05:07.064Z,71.07
2023-01-07T14:07:45.985Z,71.30
2023-01-07T14:10:27.068Z,71.37
2023-01-07T14:13:17.145Z,71.43
2023-01-07T14:15:59.835Z,71.31
2023-01-07T14:19:09.293Z,71.28
2023-01-07T14:22:12.559Z,71.10
2023-01-07T14:25:06.764Z,71.00
2023-01-07T14:27:53.430Z,71.08
2023-01-07T14:30:26.276Z,71.19
2023-01-07T14:33:03.000Z,71.00
2023-01-07T14:35:35.731Z,70.74
2023-01-07T14:38:41.615Z,70.84
2023-01-07T14:41:11.325Z,70.87
2023-01-07T14:44:04.399Z,70.77
2023-01-07T14:46:47.898Z,70.81
2023-01-07T14:49:37.278Z,70.85
2023-01-07T14:52:17.022Z,70.96
2023-01-07T14:55:29.808Z,71.02
2023-01-07T14:58:17.612Z,71.25
2023-01-07T15:01:09.383Z,71.43
2023-01-07T15:04:21.803Z,71.41
2023-01-07T15:06:55.038Z,71.35
2023-01-07T15:09:51.565Z,71.40
2023-01-07T15:12:42.388Z,71.23
2023-01-07T15:15:36.850Z,71.28
2023-01-07T15:18:09.957Z,70.97
2023-01-07T15:20:55.010Z,70.87
2023-01-07T15:23:33.087Z,71.12
2023-01-07T15:26:11.266Z,71.39
2023-01-07T15:28:48.143Z,71.61
2023-01-07T15:31:23.258Z,71.93
2023-01-07T15:34:04.527Z,72.08
2023-01-07T15:36:33.791Z,72.24
2023-01-07T15:39:04.359Z,72.16
2023-01-07T15:41:35.096Z,72.24
2023-01-07T15:44:06.046Z,72.23
2023-01-07T15:46:39.196Z,72.32
2023-01-07T15:49:18.581Z,72.49
2023-01-07T15:51:48.804Z,72.44
2023-01-07T15:54:25.594Z,72.33
2023-01-07T15:56:57.649Z,72.26
2023-01-07T15:59:29.450Z,72.30
2023-01-07T16:02:02.441Z,72.35
2023-01-07T16:04:38.293Z,72.25
2023-01-07T16:07:06.448Z,72.33
2023-01-07T16:09:35.383Z,72.16
2023-01-07T16:12:18.501Z,72.19
2023-01-07T16:14:46.528Z,72.32
2023-01-07T16:17:15.528Z,72.30
2023-01-07T16:19:43.476Z,72.32
2023-01-07T16:22:15.087Z,72.29
2023-01-07T16:24:49.741Z,72.23
2023-01-07T16:27:19.699Z,72.18
2023-01-07T16:29:52.431Z,72.22
2023-01-07T16:32:23.469Z,72.23
2023-01-07T16:35:01.697Z,72.24
2023-01-07T16:37:30.508Z,72.33
2023-01-07T16:39:59.080Z,72.47
2023-01-07T16:42:27.176Z,72.59
2023-01-07T16:45:21.197Z,72.52
2023-01-07T16:48:00.105Z,72.41
2023-01-07T16:50:37.655Z,72.44
2023-01-07T16:53:22.107Z,72.45
2023-01-07T16:55:53.144Z,72.58
2023-01-07T16:58:35.530Z,72.72
2023-01-07T17:01:05.305Z,72.79
2023-01-07T17:03:45.196Z,72.75
2023-01-07T17:06:14.050Z,72.73
2023-01-07T17:08:49.673Z,72.78
2023-01-07T17:11:23.208Z,72.80
2023-01-07T17:13:51.465Z,72.99
2023-01-07T17:16:26.118Z,72.97
2023-01-07T17:18:55.235Z,72.93
2023-01-07T17:21:40.908Z,73.31
2023-01-07T17:24:40.001Z,73.45
2023-01-07T17:27:21.300Z,73.56
2023-01-07T17:29:49.604Z,73.69
2023-01-07T17:32:17.618Z,73.56
2023-01-07T17:34:45.530Z,73.60
2023-01-07T17:37:17.274Z,73.69
2023-01-07T17:39:45.285Z,73.59
2023-01-07T17:42:43.926Z,73.67
2023-01-07T17:45:17.433Z,73.88
2023-01-07T17:47:47.244Z,73.74
2023-01-07T17:50:17.587Z,73.63
2023-01-07T17:52:47.523Z,73.72
2023-01-07T17:55:18.508Z,73.98
2023-01-07T17:57:46.614Z,73.93
2023-01-07T18:00:18.968Z,74.08
2023-01-07T18:02:47.889Z,74.12
2023-01-07T18:05:18.171Z,74.00
2023-01-07T18:07:46.172Z,74.13
2023-01-07T18:10:16.061Z,74.26
2023-01-07T18:12:45.834Z,74.39
2023-01-07T18:15:21.579Z,74.36
2023-01-07T18:17:49.851Z,74.24
2023-01-07T18:20:18.902Z,74.08
2023-01-07T18:22:47.753Z,74.07
2023-01-07T18:25:18.883Z,74.06
2023-01-07T18:27:51.956Z,73.89
2023-01-07T18:30:22.001Z,73.74
2023-01-07T18:32:53.069Z,73.79
2023-01-07T18:35:22.216Z,73.79
2023-01-07T18:37:50.924Z,73.95
2023-01-07T18:40:19.572Z,73.99
2023-01-07T18:42:48.113Z,73.88
2023-01-07T18:45:16.647Z,73.92
2023-01-07T18:47:45.517Z,73.96
2023-01-07T18:50:14.344Z,73.91
2023-01-07T18:52:43.576Z,73.78
2023-01-07T18:55:12.136Z,73.89
2023-01-07T18:57:40.018Z,74.07
2023-01-07T19:00:10.446Z,74.00
2023-01-07T19:02:38.773Z,74.06
2023-01-07T19:05:08.223Z,73.84
2023-01-07T19:07:36.582Z,73.76
2023-01-07T19:10:05.346Z,73.99
2023-01-07T19:12:33.416Z,74.07
2023-01-07T19:15:01.440Z,74.02
2023-01-07T19:17:29.448Z,73.75
2023-01-07T19:19:57.421Z,73.77
2023-01-07T19:22:25.382Z,73.68
2023-01-07T19:24:53.971Z,73.75
2023-01-07T19:27:21.983Z,73.94
2023-01-07T19:29:50.059Z,74.15
2023-01-07T19:32:18.483Z,74.10
2023-01-07T19:34:48.933Z,74.05
2023-01-07T19:37:16.829Z,74.12
2023-01-07T19:39:44.754Z,74.05
2023-01-07T19:42:12.706Z,74.14
2023-01-07T19:44:41.015Z,74.10
2023-01-07T19:47:09.044Z,74.09
2023-01-07T19:49:37.069Z,73.98
2023-01-07T19:52:05.283Z,73.88
2023-01-07T19:54:34.537Z,74.02
2023-01-07T19:57:02.403Z,74.06
2023-01-07T19:59:32.751Z,74.07
2023-01-07T20:02:07.257Z,74.15
2023-01-07T20:04:35.511Z,74.18
2023-01-07T20:07:03.455Z,74.23
2023-01-07T20:09:32.320Z,74.25
2023-01-07T20:12:00.213Z,74.19
2023-01-07T20:14:28.167Z,74.20
2023-01-07T20:16:56.222Z,74.18
2023-01-07T20:19:24.193Z,74.46
2023-01-07T20:21:52.320Z,74.60
2023-01-07T20:24:21.047Z,74.49
2023-01-07T20:26:48.972Z,74.35
2023-01-07T20:29:17.043Z,74.21
2023-01-07T20:31:45.039Z,74.17
2023-01-07T20:34:13.124Z,74.36
2023-01-07T20:36:41.098Z,74.38
2023-01-07T20:39:09.240Z,74.60
2023-01-07T20:41:38.205Z,74.45
2023-01-07T20:44:08.619Z,74.72
2023-01-07T20:46:38.520Z,74.63
2023-01-07T20:49:06.974Z,74.72
2023-01-07T20:51:36.151Z,74.89
2023-01-07T20:54:05.034Z,74.76
2023-01-07T20:56:34.584Z,74.87
2023-01-07T20:59:03.390Z,74.94
2023-01-07T21:01:31.571Z,75.06
2023-01-07T21:04:01.161Z,74.93
2023-01-07T21:06:29.237Z,74.99
2023-01-07T21:08:57.408Z,75.13
2023-01-07T21:11:25.755Z,75.34
2023-01-07T21:13:55.626Z,75.19
2023-01-07T21:16:24.171Z,75.24
2023-01-07T21:18:52.243Z,75.27
2023-01-07T21:21:23.919Z,75.52
2023-01-07T21:23:52.799Z,75.23
2023-01-07T21:26:22.088Z,75.26
2023-01-07T21:28:55.143Z,75.20
2023-01-07T21:31:25.469Z,75.18
2023-01-07T21:33:56.064Z,75.19
2023-01-07T21:36:25.632Z,74.96
2023-01-07T21:38:55.808Z,75.10
2023-01-07T21:41:25.385Z,75.02
2023-01-07T21:43:53.821Z,75.23
2023-01-07T21:46:22.293Z,75.63
2023-01-07T21:48:51.505Z,75.56
2023-01-07T21:51:21.942Z,75.64
2023-01-07T21:53:51.786Z,75.74
2023-01-07T21:56:20.381Z,75.66
2023-01-07T21:58:49.009Z,75.62
2023-01-07T22:01:18.587Z,75.70
2023-01-07T22:03:48.944Z,75.50
2023-01-07T22:06:20.443Z,75.52
2023-01-07T22:08:49.329Z,75.55
2023-01-07T22:11:18.648Z,75.56
2023-01-07T22:13:51.572Z,75.74
2023-01-07T22:16:20.910Z,75.61
2023-01-07T22:18:50.086Z,75.74
2023-01-07T22:21:19.575Z,75.68
2023-01-07T22:23:49.314Z,75.70
2023-01-07T22:26:19.882Z,76.17
2023-01-07T22:28:53.016Z,76.02
2023-01-07T22:31:22.830Z,76.28
2023-01-07T22:33:51.360Z,76.14
2023-01-07T22:36:24.872Z,76.34
2023-01-07T22:38:55.905Z,76.25
2023-01-07T22:41:24.383Z,76.09
2023-01-07T22:43:52.711Z,76.09
2023-01-07T22:46:23.101Z,76.11
2023-01-07T22:48:51.398Z,76.12
2023-01-07T22:51:24.395Z,76.14
2023-01-07T22:53:55.033Z,76.12
2023-01-07T22:56:23.974Z,75.94
2023-01-07T22:58:51.964Z,76.08
2023-01-07T23:01:20.485Z,76.30
2023-01-07T23:03:49.052Z,76.05
2023-01-07T23:06:17.481Z,76.46
2023-01-07T23:08:45.867Z,76.11
2023-01-07T23:11:34.827Z,76.45
2023-01-07T23:14:03.597Z,76.39
2023-01-07T23:16:32.133Z,76.55
2023-01-07T23:19:00.308Z,76.53
2023-01-07T23:21:30.796Z,76.56
2023-01-07T23:23:58.809Z,76.46
2023-01-07T23:26:27.161Z,76.69
2023-01-07T23:28:55.455Z,76.60
2023-01-07T23:31:23.968Z,76.85
2023-01-07T23:33:52.052Z,76.84
2023-01-07T23:36:20.146Z,76.80
2023-01-07T23:38:48.409Z,76.76
2023-01-07T23:41:17.387Z,76.58
2023-01-07T23:43:45.499Z,76.25
2023-01-07T23:46:13.642Z,76.54
2023-01-07T23:48:42.007Z,76.56
2023-01-07T23:51:11.951Z,76.52
2023-01-07T23:53:40.720Z,76.39
2023-01-07T23:56:09.347Z,76.44
2023-01-07T23:58:37.957Z,76.62
